createdAt,value
2023-02-01T00:00:03.809Z,90
2023-02-01T00:16:01.236Z,91
2023-02-01T00:31:03.531Z,91
2023-02-01T00:46:05.661Z,91
2023-02-01T01:00:02.594Z,91
2023-02-01T01:16:04.883Z,91
2023-02-01T01:31:02.302Z,91
2023-02-01T01:46:04.271Z,91
2023-02-01T02:00:01.356Z,91
2023-02-01T02:16:03.385Z,91
2023-02-01T02:31:05.646Z,91
2023-02-01T02:46:02.666Z,91
2023-02-01T03:00:04.638Z,91
2023-02-01T03:16:01.910Z,92
2023-02-01T03:31:04.103Z,92
2023-02-01T03:46:01.438Z,92
2023-02-01T04:00:03.314Z,92
2023-02-01T04:16:02.895Z,92
2023-02-01T04:31:02.936Z,92
2023-02-01T04:46:05.216Z,92
2023-02-01T05:00:02.090Z,92
2023-02-01T05:16:04.444Z,92
2023-02-01T05:31:01.391Z,92
2023-02-01T05:46:03.598Z,92
2023-02-01T06:00:05.517Z,93
2023-02-01T06:16:02.903Z,93
2023-02-01T06:31:05.102Z,92
2023-02-01T06:46:02.063Z,92
2023-02-01T07:00:04.250Z,93
2023-02-01T07:16:01.543Z,93
2023-02-01T07:31:03.718Z,93
2023-02-01T07:46:01.853Z,93
2023-02-01T08:00:03.049Z,94
2023-02-01T08:16:05.227Z,94
2023-02-01T08:31:02.469Z,94
2023-02-01T08:46:04.890Z,94
2023-02-01T09:00:01.841Z,93
2023-02-01T09:16:04.338Z,90
2023-02-01T09:31:01.631Z,85
2023-02-01T09:46:03.787Z,81
2023-02-01T10:00:05.776Z,77
2023-02-01T10:16:03.244Z,72
2023-02-01T10:31:05.384Z,70
2023-02-01T10:46:02.445Z,68
2023-02-01T11:00:18.501Z,66
2023-02-01T11:16:01.756Z,63
2023-02-01T11:31:03.890Z,61
2023-02-01T11:46:01.147Z,61
2023-02-01T12:00:03.136Z,59
2023-02-01T12:16:05.506Z,57
2023-02-01T12:31:17.775Z,56
2023-02-01T12:46:04.888Z,56
2023-02-01T13:00:01.892Z,58
2023-02-01T13:16:04.086Z,62
2023-02-01T13:31:01.407Z,63
2023-02-01T13:46:03.410Z,62
2023-02-01T14:00:05.368Z,58
2023-02-01T14:16:02.789Z,57
2023-02-01T14:31:04.888Z,57
2023-02-01T14:46:01.913Z,57
2023-02-01T15:00:03.819Z,58
2023-02-01T15:16:01.048Z,59
2023-02-01T15:31:03.088Z,60
2023-02-01T15:46:05.270Z,63
2023-02-01T16:00:03.113Z,67
2023-02-01T16:16:04.684Z,70
2023-02-01T16:31:01.896Z,72
2023-02-01T16:46:04.027Z,75
2023-02-01T17:00:02.815Z,77
2023-02-01T17:16:03.200Z,79
2023-02-01T17:31:05.388Z,80
2023-02-01T17:46:02.562Z,82
2023-02-01T18:00:04.438Z,84
2023-02-01T18:16:01.687Z,84
2023-02-01T18:31:03.878Z,86
2023-02-01T18:46:00.991Z,86
2023-02-01T19:00:02.993Z,87
2023-02-01T19:16:05.421Z,87
2023-02-01T19:31:02.882Z,88
2023-02-01T19:46:05.043Z,88
2023-02-01T20:00:01.995Z,88
2023-02-01T20:16:03.310Z,88
2023-02-01T20:31:01.237Z,88
2023-02-01T20:46:03.255Z,88
2023-02-01T21:00:05.284Z,88
2023-02-01T21:16:02.489Z,89
2023-02-01T21:31:04.763Z,89
2023-02-01T21:46:01.891Z,89
2023-02-01T22:00:03.711Z,88
2023-02-01T22:16:01.104Z,80
2023-02-01T22:31:03.181Z,77
2023-02-01T22:46:05.405Z,77
2023-02-01T23:00:02.373Z,80
2023-02-01T23:16:04.771Z,80
2023-02-01T23:31:01.880Z,79
2023-02-01T23:46:03.886Z,81
